Telluride

Airport
ICAO code: 
KTEX
Summary
ICAO Region: 
NAM
Territory: 
Location: 
Telluride, San Miguel County, Colorado,
Serving: 
Telluride, Colorado
Coordinates: 
Aerial View: 
37° 57' 14.198" N, 107° 54' 5.526" W
Metar
Observation
KTEX 291415Z AUTO 14005KT 10SM CLR M06/M21 A3040 RMK AO2
Station
Telluride, Telluride Regional Airport
Date/Time
2022-01-29 14:15:00
Wind direction
140°
Wind speed
05 kts
Lowest cloud amount
n/a
Temperature
-6°C
Dew point
-21°C
Humidity
29%
Weather condition
n/a

Description

Telluride Regional Airport is a public use airport located five nautical miles west of the central business district of Telluride, a town in San Miguel County, Colorado, United States. At an elevation of 2767 m above sea level, it is the highest commercial airport in North America.

Climatology

Because of its altitude and position in the Rockies, Telluride has a subarctic climate (Köppen climate classification Dfc) - long, usually very cold winters, and short, cool to mild summers.

Runways

Designator Length Width Surface Rops
9/27 2094 30 ASP Yes/Yes
Airport map: 
Aerial View: 

SKYbrary Partners:

Safety knowledge contributed by: